Terminal Aerodrome Forecast
Issued by NWS

Home | Current Version | Previous Version | Text Only | Print | Product List | Glossary On
Versions: 1 2 3 4 5 6 7 8 9 10 11 12 13 14 15 16 17
000
FTUS42 TJSJ 200500
TAFJBQ
TAF
TJBQ 200540Z 2006/2106 11004KT P6SM SCT090
     FM201330 08012G20KT P6SM FEW030 SCT050
     FM201730 08015G25KT P6SM VCSH SCT025 BKN040
     FM202330 11010KT P6SM FEW025=

USA.gov is the U.S. government's official web portal to all federal, state and local government web resources and services.